createdAt,value
2022-09-25T00:01:27.575Z,44.55
2022-09-25T00:03:56.019Z,44.24
2022-09-25T00:06:28.056Z,44.46
2022-09-25T00:08:56.957Z,44.44
2022-09-25T00:11:29.019Z,44.54
2022-09-25T00:13:59.076Z,44.66
2022-09-25T00:16:32.922Z,44.60
2022-09-25T00:19:19.630Z,44.65
2022-09-25T00:21:52.909Z,44.68
2022-09-25T00:24:22.433Z,44.77
2022-09-25T00:26:51.214Z,44.82
2022-09-25T00:29:21.615Z,44.87
2022-09-25T00:31:51.359Z,44.81
2022-09-25T00:34:19.748Z,44.69
2022-09-25T00:36:48.080Z,44.76
2022-09-25T00:39:16.462Z,44.68
2022-09-25T00:41:45.078Z,44.81
2022-09-25T00:45:06.079Z,44.66
2022-09-25T00:47:54.579Z,44.80
2022-09-25T00:50:34.586Z,44.66
2022-09-25T00:53:10.327Z,44.64
2022-09-25T00:55:42.429Z,44.69
2022-09-25T00:58:13.040Z,44.86
2022-09-25T01:00:42.050Z,44.78
2022-09-25T01:03:11.842Z,44.93
2022-09-25T01:05:44.848Z,44.82
2022-09-25T01:08:17.927Z,44.83
2022-09-25T01:10:46.606Z,44.83
2022-09-25T01:13:16.471Z,44.90
2022-09-25T01:15:54.271Z,44.92
2022-09-25T01:18:52.158Z,45.12
2022-09-25T01:21:39.717Z,45.10
2022-09-25T01:24:42.764Z,44.93
2022-09-25T01:27:42.159Z,45.05
2022-09-25T01:30:14.879Z,45.19
2022-09-25T01:32:58.058Z,45.32
2022-09-25T01:35:39.903Z,45.27
2022-09-25T01:38:23.126Z,45.28
2022-09-25T01:40:58.891Z,45.09
2022-09-25T01:43:36.336Z,45.31
2022-09-25T01:46:14.563Z,45.35
2022-09-25T01:48:46.997Z,45.42
2022-09-25T01:51:21.262Z,45.39
2022-09-25T01:53:56.851Z,45.33
2022-09-25T01:56:32.918Z,45.48
2022-09-25T01:59:07.463Z,45.36
2022-09-25T02:01:42.901Z,45.52
2022-09-25T02:04:16.578Z,45.39
2022-09-25T02:06:50.106Z,45.50
2022-09-25T02:09:24.500Z,45.43
2022-09-25T02:12:00.263Z,45.46
2022-09-25T02:14:36.008Z,45.55
2022-09-25T02:17:10.822Z,45.67
2022-09-25T02:19:56.879Z,45.68
2022-09-25T02:22:31.501Z,45.54
2022-09-25T02:25:08.278Z,45.70
2022-09-25T02:27:36.667Z,45.87
2022-09-25T02:30:06.707Z,46.06
2022-09-25T02:32:36.594Z,45.80
2022-09-25T02:35:05.993Z,46.07
2022-09-25T02:37:34.408Z,45.90
2022-09-25T02:40:05.134Z,45.91
2022-09-25T02:42:46.088Z,45.92
2022-09-25T02:45:34.461Z,45.98
2022-09-25T02:48:18.400Z,45.91
2022-09-25T02:50:58.330Z,45.95
2022-09-25T02:53:38.048Z,46.06
2022-09-25T02:56:13.685Z,45.92
2022-09-25T02:58:46.578Z,45.88
2022-09-25T03:01:19.490Z,45.73
2022-09-25T03:03:55.695Z,45.87
2022-09-25T03:06:25.883Z,45.73
2022-09-25T03:08:59.471Z,45.78
2022-09-25T03:11:28.928Z,45.83
2022-09-25T03:13:59.352Z,46.12
2022-09-25T03:16:35.894Z,46.17
2022-09-25T03:19:05.902Z,46.23
2022-09-25T03:21:34.403Z,46.38
2022-09-25T03:24:03.186Z,46.35
2022-09-25T03:26:31.870Z,46.59
2022-09-25T03:29:02.483Z,46.64
2022-09-25T03:31:31.585Z,46.71
2022-09-25T03:34:00.172Z,46.76
2022-09-25T03:36:31.963Z,46.76
2022-09-25T03:39:00.720Z,46.76
2022-09-25T03:41:31.495Z,46.75
2022-09-25T03:44:01.189Z,46.85
2022-09-25T03:46:32.422Z,46.78
2022-09-25T03:49:01.933Z,46.74
2022-09-25T03:51:33.839Z,46.82
2022-09-25T03:54:02.548Z,46.75
2022-09-25T03:56:31.057Z,46.68
2022-09-25T03:58:59.801Z,46.75
2022-09-25T04:01:29.283Z,46.79
2022-09-25T04:03:57.935Z,46.67
2022-09-25T04:06:28.066Z,46.73
2022-09-25T04:08:57.806Z,46.85
2022-09-25T04:11:26.476Z,46.74
2022-09-25T04:13:56.985Z,46.85
2022-09-25T04:16:26.251Z,46.97
2022-09-25T04:18:54.681Z,47.09
2022-09-25T04:21:23.067Z,47.15
2022-09-25T04:24:05.397Z,47.24
2022-09-25T04:26:35.993Z,47.28
2022-09-25T04:29:04.802Z,47.15
2022-09-25T04:31:34.343Z,47.43
2022-09-25T04:34:02.223Z,47.39
2022-09-25T04:36:30.577Z,47.41
2022-09-25T04:38:58.945Z,47.41
2022-09-25T04:41:27.343Z,47.44
2022-09-25T04:43:57.080Z,47.56
2022-09-25T04:46:25.535Z,47.54
2022-09-25T04:48:54.042Z,47.40
2022-09-25T04:51:22.382Z,47.53
2022-09-25T04:53:50.744Z,47.47
2022-09-25T04:56:19.111Z,47.58
2022-09-25T04:58:49.764Z,47.65
2022-09-25T05:01:21.513Z,47.47
2022-09-25T05:03:53.734Z,47.68
2022-09-25T05:06:23.201Z,47.75
2022-09-25T05:08:53.195Z,47.54
2022-09-25T05:11:22.287Z,47.72
2022-09-25T05:13:52.166Z,47.98
2022-09-25T05:16:22.387Z,48.00
2022-09-25T05:18:50.973Z,47.99
2022-09-25T05:21:19.349Z,48.05
2022-09-25T05:23:47.718Z,47.95
2022-09-25T05:26:16.134Z,48.06
2022-09-25T05:28:44.481Z,47.99
2022-09-25T05:31:13.549Z,48.03
2022-09-25T05:33:44.150Z,48.19
2022-09-25T05:36:12.971Z,48.17
2022-09-25T05:38:42.151Z,48.16
2022-09-25T05:41:11.993Z,47.94
2022-09-25T05:43:42.959Z,47.95
2022-09-25T05:46:12.207Z,48.01
2022-09-25T05:48:42.361Z,47.74
2022-09-25T05:51:12.036Z,47.75
2022-09-25T05:53:41.059Z,47.63
2022-09-25T05:56:09.443Z,47.61
2022-09-25T05:58:38.149Z,47.51
2022-09-25T06:01:07.908Z,47.43
2022-09-25T06:03:36.288Z,47.44
2022-09-25T06:06:07.005Z,47.44
2022-09-25T06:08:36.264Z,47.43
2022-09-25T06:11:06.198Z,47.23
2022-09-25T06:13:36.986Z,47.31
2022-09-25T06:16:06.593Z,47.38
2022-09-25T06:18:35.072Z,47.09
2022-09-25T06:21:06.694Z,47.07
2022-09-25T06:23:35.096Z,47.09
2022-09-25T06:26:04.047Z,47.02
2022-09-25T06:28:32.960Z,46.89
2022-09-25T06:31:02.584Z,47.17
2022-09-25T06:33:31.833Z,46.79
2022-09-25T06:36:00.902Z,46.66
2022-09-25T06:38:33.333Z,46.68
2022-09-25T06:41:02.121Z,46.86
2022-09-25T06:43:31.419Z,46.79
2022-09-25T06:46:03.793Z,46.54
2022-09-25T06:48:32.760Z,46.26
2022-09-25T06:51:02.496Z,46.43
2022-09-25T06:53:32.256Z,46.29
2022-09-25T06:56:01.004Z,46.29
2022-09-25T06:58:31.469Z,46.25
2022-09-25T07:01:00.206Z,46.04
2022-09-25T07:03:45.837Z,46.22
2022-09-25T07:06:16.790Z,45.77
2022-09-25T07:08:48.189Z,45.66
2022-09-25T07:11:19.439Z,45.38
2022-09-25T07:13:55.020Z,45.50
2022-09-25T07:16:26.408Z,44.97
2022-09-25T07:18:57.280Z,45.26
2022-09-25T07:21:27.879Z,45.04
2022-09-25T07:23:59.024Z,44.93
2022-09-25T07:26:30.488Z,44.73
2022-09-25T07:29:01.592Z,44.55
2022-09-25T07:31:32.143Z,44.31
2022-09-25T07:34:05.949Z,44.06
2022-09-25T07:36:34.924Z,43.96
2022-09-25T07:39:04.948Z,44.22
2022-09-25T07:41:34.352Z,43.82
2022-09-25T07:44:28.463Z,44.22
2022-09-25T07:46:51.609Z,43.91
2022-09-25T07:49:20.027Z,43.98
2022-09-25T07:51:48.393Z,43.45
2022-09-25T07:54:18.236Z,43.59
2022-09-25T07:56:46.723Z,43.88
2022-09-25T07:59:15.127Z,43.78
2022-09-25T08:01:45.614Z,43.92
2022-09-25T08:04:16.828Z,43.82
2022-09-25T08:06:45.989Z,43.37
2022-09-25T08:09:14.578Z,43.93
2022-09-25T08:11:44.342Z,43.48
2022-09-25T08:14:14.622Z,43.74
2022-09-25T08:16:43.914Z,43.66
2022-09-25T08:19:13.290Z,43.47
2022-09-25T08:21:41.673Z,43.51
2022-09-25T08:24:10.839Z,43.31
2022-09-25T08:26:39.410Z,43.39
2022-09-25T08:29:09.449Z,43.00
2022-09-25T08:31:37.920Z,42.84
2022-09-25T08:34:28.550Z,43.01
2022-09-25T08:36:58.089Z,43.11
2022-09-25T08:39:26.566Z,43.16
2022-09-25T08:41:57.962Z,42.91
2022-09-25T08:44:33.098Z,42.83
2022-09-25T08:47:23.528Z,42.30
2022-09-25T08:50:02.440Z,42.72
2022-09-25T08:52:32.214Z,42.56
2022-09-25T08:55:00.705Z,42.53
2022-09-25T08:57:37.297Z,42.35
2022-09-25T09:00:21.258Z,42.42
2022-09-25T09:02:55.313Z,42.40
2022-09-25T09:05:30.287Z,42.51
2022-09-25T09:08:03.932Z,42.65
2022-09-25T09:10:38.945Z,42.68
2022-09-25T09:13:18.493Z,42.50
2022-09-25T09:15:53.521Z,42.50
2022-09-25T09:18:25.925Z,42.85
2022-09-25T09:20:57.322Z,42.83
2022-09-25T09:23:40.724Z,43.04
2022-09-25T09:26:22.500Z,42.62
2022-09-25T09:29:22.724Z,42.75
2022-09-25T09:32:04.266Z,42.93
2022-09-25T09:35:06.269Z,42.77
2022-09-25T09:37:51.065Z,42.95
2022-09-25T09:40:41.267Z,42.49
2022-09-25T09:43:37.953Z,42.81
2022-09-25T09:46:17.388Z,42.81
2022-09-25T09:48:59.371Z,42.49
2022-09-25T09:51:38.325Z,42.70
2022-09-25T09:54:14.779Z,42.42
2022-09-25T09:56:47.995Z,42.47
2022-09-25T09:59:22.667Z,42.30
2022-09-25T10:02:01.464Z,42.63
2022-09-25T10:04:39.188Z,42.48
2022-09-25T10:07:14.841Z,42.47
2022-09-25T10:09:43.296Z,42.14
2022-09-25T10:12:21.991Z,42.14
2022-09-25T10:14:51.015Z,42.25
2022-09-25T10:17:24.248Z,42.15
2022-09-25T10:20:06.650Z,41.98
2022-09-25T10:22:41.568Z,42.26
2022-09-25T10:25:10.595Z,42.29
2022-09-25T10:27:41.534Z,42.21
2022-09-25T10:30:22.395Z,42.39
2022-09-25T10:33:01.035Z,42.28
2022-09-25T10:35:45.504Z,42.27
2022-09-25T10:38:39.302Z,42.05
2022-09-25T10:41:12.211Z,42.02
2022-09-25T10:43:54.502Z,42.18
2022-09-25T10:46:48.422Z,42.08
2022-09-25T10:49:38.252Z,42.27
2022-09-25T10:52:10.757Z,42.21
2022-09-25T10:54:44.815Z,42.11
2022-09-25T10:57:25.574Z,42.18
2022-09-25T10:59:54.849Z,42.48
2022-09-25T11:02:36.483Z,42.33
2022-09-25T11:05:06.240Z,42.00
2022-09-25T11:07:36.060Z,42.00
2022-09-25T11:10:05.069Z,42.26
2022-09-25T11:12:33.811Z,42.12
2022-09-25T11:15:06.122Z,41.84
2022-09-25T11:17:39.545Z,42.04
2022-09-25T11:20:29.738Z,42.01
2022-09-25T11:23:27.762Z,41.83
2022-09-25T11:26:07.144Z,41.82
2022-09-25T11:28:44.505Z,41.67
2022-09-25T11:31:23.276Z,42.21
2022-09-25T11:34:00.051Z,41.92
2022-09-25T11:36:35.647Z,41.91
2022-09-25T11:39:34.582Z,41.75
2022-09-25T11:42:09.264Z,41.66
2022-09-25T11:44:54.257Z,41.57
2022-09-25T11:47:29.104Z,41.61
2022-09-25T11:50:02.227Z,41.83
2022-09-25T11:52:43.953Z,42.05
2022-09-25T11:56:03.021Z,41.87
2022-09-25T11:58:50.693Z,42.17
2022-09-25T12:01:30.960Z,41.98
2022-09-25T12:04:44.769Z,42.01
2022-09-25T12:07:41.351Z,41.81
2022-09-25T12:10:29.396Z,41.38
2022-09-25T12:13:09.391Z,41.44
2022-09-25T12:15:52.954Z,41.34
2022-09-25T12:18:52.448Z,41.62
2022-09-25T12:21:34.471Z,41.59
2022-09-25T12:24:12.602Z,41.26
2022-09-25T12:26:51.285Z,41.44
2022-09-25T12:29:50.320Z,41.28
2022-09-25T12:32:36.886Z,41.44
2022-09-25T12:35:27.018Z,41.29
2022-09-25T12:38:03.828Z,41.35
2022-09-25T12:40:38.813Z,41.28
2022-09-25T12:43:14.842Z,41.34
2022-09-25T12:45:49.448Z,40.99
2022-09-25T12:48:25.322Z,40.98
2022-09-25T12:51:05.334Z,40.65
2022-09-25T12:53:40.531Z,40.44
2022-09-25T12:56:15.431Z,40.27
2022-09-25T12:59:13.223Z,40.34
2022-09-25T13:01:53.353Z,39.93
2022-09-25T13:04:44.778Z,39.63
2022-09-25T13:07:30.580Z,39.00
2022-09-25T13:09:58.963Z,38.56
2022-09-25T13:12:35.845Z,38.35
2022-09-25T13:15:12.353Z,38.10
2022-09-25T13:17:42.895Z,38.02
2022-09-25T13:20:44.290Z,37.92
2022-09-25T13:23:17.033Z,38.07
2022-09-25T13:25:48.716Z,37.64
2022-09-25T13:28:23.959Z,37.05
2022-09-25T13:31:09.230Z,37.18
2022-09-25T13:33:50.590Z,37.49
2022-09-25T13:36:36.178Z,37.17
2022-09-25T13:39:33.805Z,37.10
2022-09-25T13:42:08.140Z,36.89
2022-09-25T13:44:58.119Z,36.34
2022-09-25T13:48:12.577Z,36.52
2022-09-25T13:50:45.349Z,36.57
2022-09-25T13:53:50.475Z,35.99
2022-09-25T13:56:28.598Z,36.31
2022-09-25T13:59:40.135Z,36.47
2022-09-25T14:02:43.489Z,36.85
2022-09-25T14:05:20.246Z,36.97
2022-09-25T14:07:56.830Z,37.19
2022-09-25T14:10:25.689Z,37.36
2022-09-25T14:12:54.664Z,37.51
2022-09-25T14:15:29.462Z,37.67
2022-09-25T14:18:00.952Z,37.83
2022-09-25T14:20:36.619Z,37.95
2022-09-25T14:23:14.988Z,38.23
2022-09-25T14:25:46.953Z,38.35
2022-09-25T14:28:26.493Z,38.40
2022-09-25T14:31:17.369Z,38.56
2022-09-25T14:34:18.060Z,38.38
2022-09-25T14:37:03.823Z,38.56
2022-09-25T14:39:48.081Z,38.62
2022-09-25T14:42:56.601Z,38.72
2022-09-25T14:46:00.313Z,39.01
2022-09-25T14:48:37.123Z,39.12
2022-09-25T14:51:11.221Z,39.30
2022-09-25T14:53:44.089Z,39.25
2022-09-25T14:56:15.727Z,39.72
2022-09-25T14:58:49.597Z,39.76
2022-09-25T15:01:27.587Z,40.00
2022-09-25T15:03:59.071Z,40.14
2022-09-25T15:06:31.717Z,40.04
2022-09-25T15:09:02.860Z,40.21
2022-09-25T15:11:44.697Z,40.12
2022-09-25T15:14:17.838Z,39.94
2022-09-25T15:17:04.456Z,40.37
2022-09-25T15:19:35.922Z,40.39
2022-09-25T15:22:11.458Z,40.53
2022-09-25T15:24:47.096Z,40.53
2022-09-25T15:27:18.127Z,40.32
2022-09-25T15:29:48.753Z,40.59
2022-09-25T15:32:23.931Z,41.05
2022-09-25T15:34:52.413Z,41.00
2022-09-25T15:37:29.336Z,41.02
2022-09-25T15:40:02.123Z,40.88
2022-09-25T15:42:32.054Z,41.17
2022-09-25T15:45:15.633Z,41.26
2022-09-25T15:47:55.093Z,41.11
2022-09-25T15:50:26.933Z,41.49
2022-09-25T15:52:57.625Z,41.39
2022-09-25T15:55:26.494Z,41.75
2022-09-25T15:58:05.966Z,41.60
2022-09-25T16:00:51.564Z,41.65
2022-09-25T16:03:43.012Z,42.00
2022-09-25T16:06:15.870Z,41.94
2022-09-25T16:08:44.789Z,42.09
2022-09-25T16:11:22.658Z,42.18
2022-09-25T16:13:55.060Z,42.14
2022-09-25T16:16:29.697Z,42.22
2022-09-25T16:18:59.435Z,42.15
2022-09-25T16:21:31.775Z,42.15
2022-09-25T16:24:02.867Z,42.43
2022-09-25T16:26:38.772Z,42.79
2022-09-25T16:29:22.287Z,42.95
2022-09-25T16:31:53.581Z,42.89
2022-09-25T16:34:27.724Z,42.61
2022-09-25T16:36:59.200Z,43.02
2022-09-25T16:39:33.911Z,42.74
2022-09-25T16:42:31.193Z,43.02
2022-09-25T16:45:16.366Z,43.17
2022-09-25T16:47:49.194Z,43.22
2022-09-25T16:50:18.543Z,43.49
2022-09-25T16:52:48.479Z,43.72
2022-09-25T16:55:23.449Z,43.43
2022-09-25T16:57:53.209Z,43.82
2022-09-25T17:00:28.227Z,43.97
2022-09-25T17:02:57.208Z,43.56
2022-09-25T17:05:29.790Z,43.98
2022-09-25T17:08:01.094Z,44.11
2022-09-25T17:10:32.354Z,43.66
2022-09-25T17:13:03.384Z,44.21
2022-09-25T17:15:36.906Z,43.93
2022-09-25T17:18:15.523Z,44.05
2022-09-25T17:20:44.422Z,44.35
2022-09-25T17:23:13.045Z,44.41
2022-09-25T17:25:48.000Z,44.17
2022-09-25T17:28:17.358Z,44.43
2022-09-25T17:30:47.296Z,44.58
2022-09-25T17:33:20.933Z,44.34
2022-09-25T17:35:52.818Z,44.20
2022-09-25T17:38:21.362Z,44.68
2022-09-25T17:40:53.156Z,44.58
2022-09-25T17:43:21.951Z,44.59
2022-09-25T17:45:54.539Z,44.64
2022-09-25T17:48:25.173Z,44.74
2022-09-25T17:50:56.011Z,44.68
2022-09-25T17:53:27.786Z,45.11
2022-09-25T17:55:56.426Z,45.05
2022-09-25T17:58:26.905Z,44.71
2022-09-25T18:00:59.545Z,44.83
2022-09-25T18:03:30.691Z,44.83
2022-09-25T18:05:59.914Z,44.83
2022-09-25T18:08:28.650Z,45.37
2022-09-25T18:11:00.452Z,45.24
2022-09-25T18:13:30.269Z,45.13
2022-09-25T18:16:01.754Z,45.26
2022-09-25T18:18:51.018Z,45.22
2022-09-25T18:21:37.281Z,45.52
2022-09-25T18:24:05.950Z,45.31
2022-09-25T18:26:34.771Z,45.53
2022-09-25T18:29:03.209Z,45.93
2022-09-25T18:31:33.141Z,45.51
2022-09-25T18:34:01.868Z,45.93
2022-09-25T18:36:30.249Z,45.69
2022-09-25T18:38:58.672Z,46.14
2022-09-25T18:41:27.775Z,45.88
2022-09-25T18:43:56.190Z,46.16
2022-09-25T18:46:24.847Z,46.00
2022-09-25T18:48:56.501Z,46.32
2022-09-25T18:51:25.164Z,46.45
2022-09-25T18:53:54.535Z,46.50
2022-09-25T18:56:23.162Z,46.51
2022-09-25T18:58:51.834Z,46.74
2022-09-25T19:01:20.660Z,46.49
2022-09-25T19:03:52.304Z,46.29
2022-09-25T19:06:22.723Z,46.71
2022-09-25T19:08:54.664Z,46.67
2022-09-25T19:11:24.016Z,46.63
2022-09-25T19:13:53.849Z,46.79
2022-09-25T19:16:23.563Z,46.54
2022-09-25T19:18:53.141Z,46.85
2022-09-25T19:21:25.120Z,47.27
2022-09-25T19:23:54.335Z,47.18
2022-09-25T19:26:25.871Z,47.24
2022-09-25T19:28:55.074Z,47.06
2022-09-25T19:31:27.218Z,47.27
2022-09-25T19:33:57.004Z,47.33
2022-09-25T19:36:31.641Z,47.08
2022-09-25T19:39:01.906Z,47.29
2022-09-25T19:41:32.435Z,47.42
2022-09-25T19:44:11.259Z,47.32
2022-09-25T19:46:42.166Z,47.09
2022-09-25T19:49:11.271Z,47.08
2022-09-25T19:51:42.714Z,47.19
2022-09-25T19:54:15.261Z,47.38
2022-09-25T19:56:46.189Z,47.61
2022-09-25T19:59:17.464Z,47.69
2022-09-25T20:01:46.543Z,47.51
2022-09-25T20:04:18.783Z,47.47
2022-09-25T20:06:49.864Z,47.67
2022-09-25T20:09:18.293Z,47.71
2022-09-25T20:11:47.434Z,47.54
2022-09-25T20:14:15.815Z,47.59
2022-09-25T20:16:44.187Z,47.65
2022-09-25T20:19:12.634Z,47.78
2022-09-25T20:21:41.820Z,47.87
2022-09-25T20:24:11.625Z,48.25
2022-09-25T20:26:40.545Z,48.36
2022-09-25T20:29:12.196Z,48.33
2022-09-25T20:31:43.330Z,48.41
2022-09-25T20:34:14.863Z,48.33
2022-09-25T20:36:44.036Z,48.65
2022-09-25T20:39:19.728Z,48.58
2022-09-25T20:41:50.173Z,48.67
2022-09-25T20:44:18.641Z,48.92
2022-09-25T20:46:47.064Z,48.97
2022-09-25T20:49:20.025Z,48.80
2022-09-25T20:51:48.483Z,48.93
2022-09-25T20:54:18.377Z,49.17
2022-09-25T20:56:46.955Z,49.05
2022-09-25T20:59:18.158Z,49.01
2022-09-25T21:01:47.087Z,49.07
2022-09-25T21:04:18.124Z,49.07
2022-09-25T21:06:46.739Z,49.18
2022-09-25T21:09:22.274Z,49.59
2022-09-25T21:11:51.348Z,49.42
2022-09-25T21:14:22.094Z,49.31
2022-09-25T21:16:51.298Z,49.55
2022-09-25T21:19:22.177Z,49.71
2022-09-25T21:21:51.100Z,49.56
2022-09-25T21:24:22.567Z,49.49
2022-09-25T21:26:51.237Z,49.76
2022-09-25T21:29:20.190Z,50.03
2022-09-25T21:31:50.614Z,50.05
2022-09-25T21:34:20.219Z,50.24
2022-09-25T21:36:49.288Z,50.11
2022-09-25T21:39:18.530Z,50.37
2022-09-25T21:41:50.729Z,50.27
2022-09-25T21:44:24.240Z,50.47
2022-09-25T21:46:52.731Z,50.31
2022-09-25T21:49:23.112Z,50.19
2022-09-25T21:51:52.463Z,50.41
2022-09-25T21:54:20.890Z,50.47
2022-09-25T21:56:50.886Z,50.68
2022-09-25T21:59:19.410Z,50.54
2022-09-25T22:01:47.885Z,50.55
2022-09-25T22:04:17.088Z,50.40
2022-09-25T22:06:47.966Z,50.46
2022-09-25T22:09:18.534Z,50.69
2022-09-25T22:11:48.064Z,50.75
2022-09-25T22:14:19.132Z,50.74
2022-09-25T22:16:49.873Z,50.92
2022-09-25T22:19:20.939Z,51.20
2022-09-25T22:21:51.868Z,51.08
2022-09-25T22:24:20.541Z,51.02
2022-09-25T22:26:51.645Z,51.31
2022-09-25T22:29:22.150Z,51.32
2022-09-25T22:31:50.605Z,51.45
2022-09-25T22:34:23.023Z,51.14
2022-09-25T22:36:58.671Z,51.40
2022-09-25T22:39:29.075Z,51.36
2022-09-25T22:41:58.324Z,51.19
2022-09-25T22:44:28.788Z,51.84
2022-09-25T22:46:57.849Z,51.65
2022-09-25T22:49:26.466Z,51.38
2022-09-25T22:51:54.995Z,51.84
2022-09-25T22:54:23.330Z,52.01
2022-09-25T22:56:53.462Z,51.95
2022-09-25T22:59:21.841Z,52.08
2022-09-25T23:01:54.690Z,52.42
2022-09-25T23:04:25.305Z,52.66
2022-09-25T23:06:54.232Z,52.91
2022-09-25T23:09:26.061Z,52.98
2022-09-25T23:11:55.549Z,53.06
2022-09-25T23:14:30.661Z,53.33
2022-09-25T23:17:01.294Z,53.51
2022-09-25T23:19:29.695Z,53.48
2022-09-25T23:21:58.087Z,53.77
2022-09-25T23:24:27.067Z,53.68
2022-09-25T23:26:55.667Z,53.63
2022-09-25T23:29:24.038Z,53.82
2022-09-25T23:31:52.602Z,53.88
2022-09-25T23:34:22.559Z,53.89
2022-09-25T23:36:50.944Z,53.88
2022-09-25T23:39:21.485Z,53.75
2022-09-25T23:41:50.020Z,53.70
2022-09-25T23:44:18.746Z,53.65
2022-09-25T23:46:47.168Z,53.74
2022-09-25T23:49:16.043Z,53.65
2022-09-25T23:51:46.357Z,53.54
2022-09-25T23:54:14.987Z,53.55
2022-09-25T23:56:43.953Z,53.48
2022-09-25T23:59:14.281Z,53.72
